createdAt,value
2022-11-21T00:12:09.699Z,-2.80
2022-11-21T00:17:11.989Z,-3.20
2022-11-21T00:22:14.304Z,-3.20
2022-11-21T00:27:16.577Z,-3.10
2022-11-21T00:32:18.885Z,-3.10
2022-11-21T00:37:21.168Z,-3.10
2022-11-21T00:42:24.070Z,-3.10
2022-11-21T00:47:26.361Z,-3.20
2022-11-21T00:52:28.659Z,-3.10
2022-11-21T00:57:30.931Z,-3.20
2022-11-21T01:02:33.588Z,-3.20
2022-11-21T01:07:36.402Z,-3.20
2022-11-21T01:12:38.740Z,-3.30
2022-11-21T01:17:41.355Z,-3.30
2022-11-21T01:22:43.638Z,-3.20
2022-11-21T01:27:46.080Z,-3.10
2022-11-21T01:32:50.037Z,-2.90
2022-11-21T01:37:52.412Z,-2.60
2022-11-21T01:42:58.404Z,-2.50
2022-11-21T01:48:00.799Z,-2.40
2022-11-21T01:53:03.115Z,-2.40
2022-11-21T01:58:06.075Z,-2.30
2022-11-21T02:03:14.282Z,-2.20
2022-11-21T02:08:20.473Z,-2.10
2022-11-21T02:13:23.297Z,-2.10
2022-11-21T02:18:25.661Z,-2.10
2022-11-21T02:23:43.335Z,-2.10
2022-11-21T02:28:45.703Z,-1.90
2022-11-21T02:33:47.974Z,-1.80
2022-11-21T02:38:50.326Z,-1.80
2022-11-21T02:44:20.768Z,-1.70
2022-11-21T02:49:42.316Z,-1.70
2022-11-21T02:54:44.709Z,-1.70
2022-11-21T02:59:47.127Z,-1.70
2022-11-21T03:04:49.398Z,-1.60
2022-11-21T03:09:51.682Z,-1.60
2022-11-21T03:14:53.960Z,-1.50
2022-11-21T03:19:56.222Z,-1.50
2022-11-21T03:24:58.620Z,-1.40
2022-11-21T03:30:00.887Z,-1.40
2022-11-21T03:35:03.266Z,-1.40
2022-11-21T03:40:06.254Z,-1.50
2022-11-21T03:45:09.108Z,-1.40
2022-11-21T03:50:12.112Z,-1.50
2022-11-21T03:55:15.294Z,-1.50
2022-11-21T04:00:17.819Z,-1.40
2022-11-21T04:05:20.125Z,-1.50
2022-11-21T04:10:22.481Z,-1.40
2022-11-21T04:15:24.829Z,-1.40
2022-11-21T04:20:27.187Z,-1.40
2022-11-21T04:25:29.662Z,-1.40
2022-11-21T04:30:34.296Z,-1.30
2022-11-21T04:35:36.634Z,-1.30
2022-11-21T04:40:39.019Z,-1.20
2022-11-21T04:45:41.386Z,-1.30
2022-11-21T04:50:44.941Z,-1.30
2022-11-21T04:55:47.266Z,-1.30
2022-11-21T05:00:49.635Z,-1.30
2022-11-21T05:05:51.934Z,-1.30
2022-11-21T05:11:12.697Z,-1.30
2022-11-21T05:16:14.974Z,-1.30
2022-11-21T05:21:17.320Z,-1.30
2022-11-21T05:26:19.653Z,-1.30
2022-11-21T05:31:21.947Z,-1.30
2022-11-21T05:36:24.256Z,-1.40
2022-11-21T05:41:26.549Z,-1.00
2022-11-21T05:46:28.851Z,-1.40
2022-11-21T05:51:31.134Z,-1.30
2022-11-21T05:56:33.581Z,-1.30
2022-11-21T06:01:54.198Z,-1.30
2022-11-21T06:06:56.476Z,-1.30
2022-11-21T06:11:58.786Z,-1.30
2022-11-21T06:17:01.069Z,-1.20
2022-11-21T06:22:03.359Z,-1.10
2022-11-21T06:27:05.660Z,-1.10
2022-11-21T06:32:08.057Z,-1.10
2022-11-21T06:37:10.367Z,-1.10
2022-11-21T06:42:12.628Z,-1.10
2022-11-21T06:47:14.933Z,-1.10
2022-11-21T06:52:17.244Z,-1.00
2022-11-21T06:57:19.518Z,-1.00
2022-11-21T07:02:21.832Z,-1.00
2022-11-21T07:07:24.242Z,-1.00
2022-11-21T07:12:45.088Z,-1.00
2022-11-21T07:17:47.392Z,-1.00
2022-11-21T07:22:53.473Z,-1.00
2022-11-21T07:27:59.039Z,-1.00
2022-11-21T07:33:04.007Z,-1.00
2022-11-21T07:38:06.362Z,-1.00
2022-11-21T07:43:11.169Z,-1.00
2022-11-21T07:48:13.575Z,-0.80
2022-11-21T07:53:15.887Z,-0.90
2022-11-21T07:58:18.367Z,-0.80
2022-11-21T08:03:20.724Z,-0.80
2022-11-21T08:08:25.060Z,-0.80
2022-11-21T08:13:30.589Z,-0.70
2022-11-21T08:18:33.618Z,-0.70
2022-11-21T08:23:35.908Z,-0.70
2022-11-21T08:28:38.214Z,-0.60
2022-11-21T08:33:41.148Z,-0.60
2022-11-21T08:38:43.431Z,-0.50
2022-11-21T08:43:45.878Z,-0.50
2022-11-21T08:48:49.433Z,-0.40
2022-11-21T08:53:51.873Z,-0.40
2022-11-21T08:58:54.641Z,-0.30
2022-11-21T09:03:56.912Z,-0.30
2022-11-21T09:08:59.218Z,-0.20
2022-11-21T09:14:19.854Z,-0.30
2022-11-21T09:19:22.978Z,-0.20
2022-11-21T09:24:27.367Z,-0.10
2022-11-21T09:29:29.891Z,-0.10
2022-11-21T09:34:41.754Z,-0.10
2022-11-21T09:39:44.034Z,0.20
2022-11-21T09:44:52.332Z,0.20
2022-11-21T09:50:01.784Z,0.20
2022-11-21T09:55:16.346Z,0.30
2022-11-21T10:00:27.773Z,0.40
2022-11-21T10:05:40.529Z,0.70
2022-11-21T10:10:49.882Z,0.80
2022-11-21T10:16:07.031Z,0.80
2022-11-21T10:21:24.460Z,0.80
2022-11-21T10:26:50.399Z,0.60
2022-11-21T10:31:57.351Z,0.80
2022-11-21T10:37:11.812Z,0.80
2022-11-21T10:42:28.891Z,0.90
2022-11-21T10:47:34.257Z,1.00
2022-11-21T10:52:44.792Z,1.10
2022-11-21T10:57:49.465Z,1.10
2022-11-21T11:03:07.897Z,1.00
2022-11-21T11:08:14.859Z,1.00
2022-11-21T11:13:50.639Z,1.00
2022-11-21T11:19:01.073Z,1.00
2022-11-21T11:24:21.596Z,1.10
2022-11-21T11:29:32.445Z,1.10
2022-11-21T11:34:49.059Z,1.20
2022-11-21T11:40:08.207Z,1.20
2022-11-21T11:45:32.233Z,1.20
2022-11-21T11:50:41.398Z,1.20
2022-11-21T11:56:05.191Z,1.20
2022-11-21T12:01:21.171Z,1.30
2022-11-21T12:07:04.174Z,1.40
2022-11-21T12:12:08.063Z,1.50
2022-11-21T12:17:11.656Z,1.50
2022-11-21T12:22:14.020Z,1.40
2022-11-21T12:27:32.192Z,1.20
2022-11-21T12:32:34.581Z,1.30
2022-11-21T12:37:47.209Z,1.10
2022-11-21T12:43:09.550Z,1.20
2022-11-21T12:48:46.971Z,1.20
2022-11-21T12:54:12.121Z,1.20
2022-11-21T12:59:15.279Z,1.40
2022-11-21T13:04:30.583Z,1.40
2022-11-21T13:09:40.064Z,1.20
2022-11-21T13:14:53.110Z,1.10
2022-11-21T13:20:20.435Z,1.10
2022-11-21T13:25:31.950Z,1.00
2022-11-21T13:30:34.801Z,1.00
2022-11-21T13:35:52.545Z,1.00
2022-11-21T13:41:13.331Z,0.90
2022-11-21T13:46:53.988Z,0.90
2022-11-21T13:51:56.677Z,0.80
2022-11-21T13:57:05.410Z,0.80
2022-11-21T14:02:29.771Z,0.80
2022-11-21T14:07:37.237Z,0.70
2022-11-21T14:12:44.818Z,0.70
2022-11-21T14:17:54.936Z,0.70
2022-11-21T14:23:06.457Z,0.60
2022-11-21T14:28:12.972Z,0.60
2022-11-21T14:33:26.317Z,0.50
2022-11-21T14:38:30.284Z,0.50
2022-11-21T14:43:33.474Z,0.50
2022-11-21T14:48:35.815Z,0.50
2022-11-21T14:53:42.864Z,0.40
2022-11-21T14:58:45.356Z,0.40
2022-11-21T15:04:04.769Z,0.60
2022-11-21T15:14:39.246Z,0.30
2022-11-21T15:19:42.481Z,0.30
2022-11-21T15:24:44.766Z,0.30
2022-11-21T15:29:47.098Z,0.20
2022-11-21T15:34:50.179Z,0.20
2022-11-21T15:39:53.665Z,0.30
2022-11-21T15:45:20.797Z,0.10
2022-11-21T15:50:24.952Z,0.20
2022-11-21T15:55:30.104Z,0.20
2022-11-21T16:00:32.395Z,0.20
2022-11-21T16:05:34.666Z,0.30
2022-11-21T16:10:37.132Z,0.20
2022-11-21T16:15:39.838Z,0.20
2022-11-21T16:20:42.161Z,0.20
2022-11-21T16:26:11.611Z,0.20
2022-11-21T16:31:25.369Z,0.20
2022-11-21T16:36:30.363Z,0.20
2022-11-21T16:41:32.817Z,0.20
2022-11-21T16:46:35.113Z,0.20
2022-11-21T16:51:38.614Z,0.20
2022-11-21T16:56:40.962Z,0.20
2022-11-21T17:01:43.411Z,0.20
2022-11-21T17:06:48.836Z,0.20
2022-11-21T17:11:51.135Z,0.30
2022-11-21T17:16:53.455Z,0.40
2022-11-21T17:21:56.549Z,0.40
2022-11-21T17:27:01.124Z,0.30
2022-11-21T17:32:03.452Z,0.30
2022-11-21T17:37:05.999Z,0.30
2022-11-21T17:42:08.352Z,0.30
2022-11-21T17:47:10.908Z,0.30
2022-11-21T17:52:13.274Z,0.30
2022-11-21T17:57:15.663Z,0.20
2022-11-21T18:02:18.351Z,0.10
2022-11-21T18:07:20.831Z,0.20
2022-11-21T18:12:23.281Z,0.20
2022-11-21T18:17:25.695Z,0.30
2022-11-21T18:22:29.609Z,0.20
2022-11-21T18:27:32.273Z,0.30
2022-11-21T18:32:35.373Z,0.20
2022-11-21T18:37:38.274Z,0.10
2022-11-21T18:42:40.627Z,0.10
2022-11-21T18:47:43.127Z,0.20
2022-11-21T18:52:47.001Z,0.20
2022-11-21T18:57:49.537Z,0.10
2022-11-21T19:02:51.900Z,0.20
2022-11-21T19:07:54.281Z,0.10
2022-11-21T19:12:56.622Z,0.10
2022-11-21T19:17:59.003Z,0.20
2022-11-21T19:23:01.788Z,0.10
2022-11-21T19:28:04.289Z,0.10
2022-11-21T19:33:06.597Z,0.10
2022-11-21T19:38:09.364Z,0.10
2022-11-21T19:43:11.754Z,0.10
2022-11-21T19:48:14.081Z,0.10
2022-11-21T19:53:16.472Z,0.10
2022-11-21T19:58:19.020Z,0.10
2022-11-21T20:03:21.946Z,0.10
2022-11-21T20:08:24.344Z,0.10
2022-11-21T20:13:26.656Z,0.20
2022-11-21T20:18:29.242Z,0.20
2022-11-21T20:23:31.533Z,0.00
2022-11-21T20:28:35.087Z,0.10
2022-11-21T20:33:43.141Z,0.10
2022-11-21T20:38:50.417Z,0.10
2022-11-21T20:49:22.484Z,0.20
2022-11-21T20:54:25.005Z,0.30
2022-11-21T20:59:27.668Z,0.10
2022-11-21T21:04:30.248Z,0.00
2022-11-21T21:09:32.583Z,0.00
2022-11-21T21:14:34.927Z,0.10
2022-11-21T21:19:37.201Z,0.00
2022-11-21T21:24:39.474Z,0.10
2022-11-21T21:29:41.746Z,0.10
2022-11-21T21:34:44.000Z,0.10
2022-11-21T21:39:46.269Z,0.00
2022-11-21T21:44:48.570Z,0.40
2022-11-21T21:49:51.262Z,0.00
2022-11-21T21:54:53.577Z,-0.10
2022-11-21T21:59:55.855Z,-0.10
2022-11-21T22:04:58.122Z,-0.10
2022-11-21T22:10:02.091Z,-0.20
2022-11-21T22:15:04.728Z,-0.20
2022-11-21T22:20:07.630Z,-0.20
2022-11-21T22:25:10.037Z,-0.20
2022-11-21T22:30:14.420Z,-0.30
2022-11-21T22:35:16.722Z,-0.30
2022-11-21T22:40:19.282Z,-0.40
2022-11-21T22:45:21.583Z,-0.30
2022-11-21T22:50:23.889Z,-0.30
2022-11-21T22:55:26.152Z,-0.30
2022-11-21T23:00:28.597Z,-0.30
2022-11-21T23:05:30.943Z,-0.30
2022-11-21T23:10:33.243Z,-0.30
2022-11-21T23:15:35.516Z,-0.30
2022-11-21T23:20:37.879Z,-0.30
2022-11-21T23:25:40.254Z,-0.30
2022-11-21T23:30:45.538Z,-0.30
2022-11-21T23:35:48.062Z,-0.30
2022-11-21T23:40:50.571Z,-0.30
2022-11-21T23:45:53.947Z,-0.30
2022-11-21T23:50:57.356Z,-0.30
2022-11-21T23:55:59.631Z,-0.20
